Allegany, New York
Current Conditions -  °F | °C
As of 6:55 AM on Friday 24 Oct 2014 (Local Time) from KOLE Reporting Station
Haze Haze  
Wind Chill: 37°   Ceiling: 400
Heat Index: 37°   Visibility: 5mi
Dew Point: 37°   Wind: 3mph
Humidity: 100%   Direction: 300°WNW
Pressure: 30.02"   Gusts: NA
Location:  42.09°N, 78.49°W
Report Text: KOLE 241055Z AUTO 30003KT 5SM BR BKN004 03/03 A3002 RMK AO2
Loading
Personal Weather Stations






























Interactive Weather Map
Tropical Storm Tracking
New forecast layout! Learn more

10-Day Weather Forecast

Advertisements
Track Severe Weather on mobile